Time;durP1;ratioP1;P1;durP2;ratioP2;P2;SDS_P1;SDS_P2;PMS_P1;PMS_P2;Temp;Humidity;BMP_temperature;BMP_pressure;BME280_temperature;BME280_humidity;BME280_pressure;Samples;Min_cycle;Max_cycle;Signal;HPM_P1;HPM_P2
2023/01/15 00:01:22;;;;;;;11.52;5.68;;;;;;;2.35;100.00;92629.66;4992063;28;20109;-77
2023/01/15 00:03:48;;;;;;;11.90;6.15;;;;;;;2.37;100.00;92627.63;4993361;28;20564;-78
2023/01/15 00:06:15;;;;;;;10.23;6.18;;;;;;;2.40;100.00;92631.53;4992217;28;20117;-77
2023/01/15 00:09:00;;;;;;;9.93;6.50;;;;;;;2.41;100.00;92633.91;4993588;28;20064;-77
2023/01/15 00:11:26;;;;;;;11.95;6.93;;;;;;;2.43;100.00;92628.47;4960393;28;20035;-78
2023/01/15 00:13:51;;;;;;;11.82;6.55;;;;;;;2.40;100.00;92623.78;4988648;28;20543;-77
2023/01/15 00:19:39;;;;;;;11.95;6.90;;;;;;;2.45;100.00;92619.47;4993036;28;20034;-78
2023/01/15 00:22:04;;;;;;;15.30;7.32;;;;;;;2.48;100.00;92619.03;4975936;28;20039;-78
2023/01/15 00:27:58;;;;;;;11.32;6.43;;;;;;;2.50;100.00;92611.03;4974217;28;20061;-78
2023/01/15 00:30:24;;;;;;;10.32;6.05;;;;;;;2.49;100.00;92612.03;4992196;28;20494;-77
2023/01/15 00:36:12;;;;;;;11.48;6.35;;;;;;;2.50;100.00;92596.31;4991684;28;20047;-77
2023/01/15 00:38:38;;;;;;;9.73;6.07;;;;;;;2.51;100.00;92599.69;4991999;28;20037;-78
2023/01/15 00:41:22;;;;;;;9.95;6.25;;;;;;;2.52;100.00;92598.66;4992735;28;20121;-77
2023/01/15 00:43:48;;;;;;;9.02;5.50;;;;;;;2.53;100.00;92595.06;4994385;28;20035;-77
2023/01/15 00:46:13;;;;;;;9.50;5.35;;;;;;;2.54;100.00;92595.84;4997154;28;20064;-77
2023/01/15 00:49:00;;;;;;;8.70;5.10;;;;;;;2.53;100.00;92595.06;4992276;28;20058;-76
2023/01/15 00:51:26;;;;;;;9.82;5.28;;;;;;;2.54;100.00;92591.44;4996580;28;20060;-77
2023/01/15 00:54:12;;;;;;;9.45;5.30;;;;;;;2.55;100.00;92592.25;4995229;28;20030;-78
2023/01/15 00:56:38;;;;;;;12.40;5.50;;;;;;;2.56;100.00;92589.41;4999384;28;20042;-76
2023/01/15 00:59:04;;;;;;;11.70;6.30;;;;;;;2.54;100.00;92580.34;4993904;28;20404;-77
2023/01/15 01:01:33;;;;;;;9.30;5.75;;;;;;;2.56;100.00;92583.47;4995672;28;20041;-77
2023/01/15 01:03:59;;;;;;;9.88;5.53;;;;;;;2.58;100.00;92579.63;4991936;28;20042;-77
2023/01/15 01:06:25;;;;;;;10.70;6.07;;;;;;;2.59;100.00;92575.25;4992166;28;20121;-77
2023/01/15 01:08:51;;;;;;;10.05;5.40;;;;;;;2.59;100.00;92567.50;4984537;28;20138;-77
2023/01/15 01:11:19;;;;;;;9.27;5.55;;;;;;;2.57;100.00;92570.31;5001363;28;20078;-77
2023/01/15 01:13:46;;;;;;;15.38;6.03;;;;;;;2.60;100.00;92562.09;4995151;28;20026;-76
2023/01/15 01:16:51;;;;;;;12.85;6.60;;;;;;;2.62;100.00;92564.44;4981237;28;20085;-77
2023/01/15 01:19:19;;;;;;;11.98;6.40;;;;;;;2.59;100.00;92557.16;4975772;28;20444;-77
2023/01/15 01:21:46;;;;;;;13.05;6.03;;;;;;;2.60;100.00;92559.50;4977479;28;20041;-77
2023/01/15 01:28:05;;;;;;;10.45;5.28;;;;;;;2.55;100.00;92554.25;4987550;28;20057;-77
2023/01/15 01:30:51;;;;;;;9.18;5.32;;;;;;;2.54;100.00;92564.84;4995663;28;20471;-77
2023/01/15 01:33:16;;;;;;;8.52;4.78;;;;;;;2.50;100.00;92559.38;4995959;28;20045;-77
2023/01/15 01:35:48;;;;;;;10.05;4.80;;;;;;;2.47;100.00;92559.81;4995968;28;20404;-77
2023/01/15 01:38:32;;;;;;;7.85;3.95;;;;;;;2.42;100.00;92557.16;4994708;28;20150;-77
2023/01/15 01:40:58;;;;;;;6.75;4.05;;;;;;;2.39;100.00;92563.56;4995917;28;20058;-77
2023/01/15 01:43:28;;;;;;;7.47;3.97;;;;;;;2.37;100.00;92562.25;4995700;28;20062;-77
2023/01/15 01:46:15;;;;;;;10.07;5.13;;;;;;;2.36;100.00;92552.91;4994232;28;20120;-77
2023/01/15 01:48:47;;;;;;;9.95;4.78;;;;;;;2.33;99.63;92553.38;4994192;28;20046;-77
2023/01/15 01:51:13;;;;;;;10.05;4.75;;;;;;;2.35;99.42;92559.13;4995569;28;20042;-77
2023/01/15 01:53:39;;;;;;;10.75;5.13;;;;;;;2.34;99.49;92539.44;4978012;28;20034;-77
2023/01/15 01:56:10;;;;;;;8.82;4.82;;;;;;;2.34;99.71;92547.19;4993328;28;20567;-77
2023/01/15 01:58:37;;;;;;;9.93;5.43;;;;;;;2.33;99.21;92548.22;4978350;28;20125;-77
2023/01/15 02:01:04;;;;;;;8.52;4.88;;;;;;;2.29;99.39;92546.09;4978539;28;20042;-77
2023/01/15 02:03:49;;;;;;;9.23;4.57;;;;;;;2.31;99.12;92551.03;4980372;28;20039;-78
2023/01/15 02:06:15;;;;;;;8.02;4.30;;;;;;;2.29;98.33;92550.47;4959078;28;20045;-77
2023/01/15 02:08:41;;;;;;;6.85;3.70;;;;;;;2.29;97.62;92551.25;4989359;28;20085;-77
2023/01/15 02:11:13;;;;;;;8.00;3.95;;;;;;;2.29;96.40;92547.91;4995329;28;20038;-77
2023/01/15 02:13:41;;;;;;;;;;;;;;;2.29;95.28;92553.84;4994362;28;20333;-77
2023/01/15 02:16:23;;;;;;;6.20;3.00;;;;;;;2.32;94.83;92546.66;4977366;28;19917;-77
2023/01/15 02:18:51;;;;;;;6.60;3.25;;;;;;;2.34;94.36;92534.28;4990584;28;20501;-77
2023/01/15 02:21:20;;;;;;;5.57;3.13;;;;;;;2.32;94.79;92531.16;4987331;28;20077;-76
2023/01/15 02:27:21;;;;;;;6.18;3.63;;;;;;;2.28;94.17;92523.88;4990206;28;20118;-77
2023/01/15 02:30:13;;;;;;;5.90;2.97;;;;;;;2.33;93.76;92517.22;4990369;28;20034;-77
2023/01/15 02:32:59;;;;;;;6.82;3.35;;;;;;;2.35;93.37;92521.13;4974202;28;20031;-76
2023/01/15 02:35:45;;;;;;;5.55;3.15;;;;;;;2.37;93.45;92513.94;4989717;28;20041;-77
2023/01/15 02:38:16;;;;;;;5.95;3.42;;;;;;;2.39;93.34;92511.91;4982331;28;20031;-77
2023/01/15 02:41:05;;;;;;;6.38;2.95;;;;;;;2.41;93.10;92503.91;4987629;28;20038;-77
2023/01/15 02:43:37;;;;;;;8.65;3.40;;;;;;;2.41;92.37;92499.53;4977698;28;20462;-77
2023/01/15 02:46:06;;;;;;;6.70;2.72;;;;;;;2.42;92.26;92500.31;4993963;28;20038;-78
2023/01/15 02:48:35;;;;;;;6.10;3.00;;;;;;;2.37;92.28;92497.66;4991044;28;20535;-78
2023/01/15 02:51:11;;;;;;;5.18;3.00;;;;;;;2.43;92.50;92497.50;4983499;28;20092;-77
2023/01/15 02:53:40;;;;;;;6.40;3.20;;;;;;;2.43;92.15;92497.50;4992426;28;20128;-78
2023/01/15 02:56:11;;;;;;;6.30;2.90;;;;;;;2.43;91.82;92491.53;4995523;28;20096;-78
2023/01/15 02:58:46;;;;;;;5.88;2.75;;;;;;;2.43;90.87;92497.50;4989219;28;20069;-78
2023/01/15 03:01:21;;;;;;;5.82;3.00;;;;;;;2.45;90.04;92492.84;4991767;28;20427;-78
2023/01/15 03:04:27;;;;;;;5.95;3.13;;;;;;;2.49;90.02;92480.25;4989416;28;20221;-78
2023/01/15 03:06:55;;;;;;;5.78;3.17;;;;;;;2.50;90.46;92474.88;4991768;28;20386;-77
2023/01/15 03:09:23;;;;;;;5.63;3.13;;;;;;;2.50;91.09;92468.91;4989064;28;20039;-78
2023/01/15 03:12:06;;;;;;;9.63;5.15;;;;;;;2.55;92.42;92463.03;4985777;28;20481;-78
2023/01/15 03:14:40;;;;;;;10.38;5.32;;;;;;;2.58;93.25;92463.34;4988512;28;20494;-77
2023/01/15 03:17:22;;;;;;;9.88;5.00;;;;;;;2.62;93.06;92469.59;4995893;28;20034;-78
2023/01/15 03:20:11;;;;;;;8.00;4.18;;;;;;;2.65;93.19;92458.78;4981922;28;20117;-77
2023/01/15 03:22:42;;;;;;;7.35;4.10;;;;;;;2.74;91.82;92460.97;4987361;28;20050;-78
2023/01/15 03:25:23;;;;;;;13.70;4.35;;;;;;;2.68;90.80;92447.97;4973156;28;20034;-77
2023/01/15 03:27:55;;;;;;;7.13;3.85;;;;;;;2.61;91.40;92444.78;4989534;28;20718;-77
2023/01/15 03:30:22;;;;;;;7.85;4.20;;;;;;;2.61;91.67;92441.41;4990658;28;20042;-77
2023/01/15 03:33:10;;;;;;;8.13;4.43;;;;;;;2.58;92.40;92436.72;4989532;28;20018;-77
2023/01/15 03:38:50;;;;;;;7.20;3.92;;;;;;;2.49;92.17;92438.91;4992409;28;20515;-77
2023/01/15 03:41:48;;;;;;;8.88;4.13;;;;;;;2.48;92.44;92448.47;4993910;28;20436;-76
2023/01/15 03:44:42;;;;;;;8.30;3.50;;;;;;;2.46;93.25;92435.00;4991581;28;20102;-76
2023/01/15 03:47:26;;;;;;;7.78;4.03;;;;;;;2.44;92.70;92438.84;4978798;28;20030;-77
2023/01/15 03:50:26;;;;;;;6.20;3.25;;;;;;;2.43;92.19;92432.09;4990383;28;20046;-77
2023/01/15 03:53:17;;;;;;;7.03;3.75;;;;;;;2.37;92.48;92420.16;4993234;28;20447;-77
2023/01/15 03:56:23;;;;;;;7.40;4.07;;;;;;;2.42;92.06;92422.81;4993930;28;20045;-77
2023/01/15 03:58:59;;;;;;;7.10;3.58;;;;;;;2.39;92.75;92421.47;4992208;28;20416;-77
2023/01/15 04:01:48;;;;;;;6.53;3.60;;;;;;;2.38;92.96;92416.53;4993193;28;20153;-78
2023/01/15 04:04:14;;;;;;;6.95;3.67;;;;;;;2.36;92.08;92403.84;4993212;28;20034;-77
2023/01/15 04:06:42;;;;;;;6.85;3.47;;;;;;;2.34;91.17;92387.81;4992141;28;20124;-77
2023/01/15 04:09:11;;;;;;;7.53;3.50;;;;;;;2.39;90.53;92397.44;4991952;28;20031;-77
2023/01/15 04:11:37;;;;;;;7.10;3.53;;;;;;;2.38;90.37;92394.06;4996291;28;20047;-77
2023/01/15 04:14:05;;;;;;;6.07;3.67;;;;;;;2.35;90.91;92381.63;4988743;28;20031;-77
2023/01/15 04:16:47;;;;;;;8.98;3.47;;;;;;;2.31;91.45;92385.72;4974302;28;20062;-77
2023/01/15 04:19:12;;;;;;;5.75;3.08;;;;;;;2.27;92.14;92389.78;4972180;28;20038;-77
2023/01/15 04:21:54;;;;;;;5.73;3.33;;;;;;;2.20;92.20;92384.78;4986193;28;20041;-77
2023/01/15 04:24:22;;;;;;;7.63;3.58;;;;;;;2.17;92.30;92374.16;4992729;28;20297;-77
2023/01/15 04:26:47;;;;;;;5.45;3.10;;;;;;;2.14;91.55;92372.84;4992483;28;20038;-77
2023/01/15 04:29:13;;;;;;;6.30;3.10;;;;;;;2.12;91.20;92372.28;4985425;28;20041;-77
2023/01/15 04:31:40;;;;;;;5.40;2.90;;;;;;;2.10;90.54;92366.56;4979362;28;20034;-77
2023/01/15 04:34:05;;;;;;;5.30;2.55;;;;;;;2.05;88.93;92362.13;4988056;28;20038;-77
2023/01/15 04:36:34;;;;;;;6.43;2.72;;;;;;;2.04;88.44;92367.50;4982712;28;20042;-77
2023/01/15 04:39:01;;;;;;;5.45;2.72;;;;;;;2.00;87.94;92366.41;4992543;28;20042;-77
2023/01/15 04:44:15;;;;;;;6.72;3.13;;;;;;;1.96;88.54;92360.94;4992399;28;20045;-78
2023/01/15 04:46:45;;;;;;;6.40;3.17;;;;;;;1.92;89.52;92343.59;4991841;28;20046;-77
2023/01/15 04:49:13;;;;;;;8.02;3.35;;;;;;;1.91;89.98;92349.75;4987754;28;20114;-77
2023/01/15 04:51:58;;;;;;;6.03;3.10;;;;;;;1.88;90.36;92341.47;4973707;28;20034;-77
2023/01/15 04:54:24;;;;;;;8.02;3.25;;;;;;;1.86;90.77;92356.41;4978912;28;20041;-77
2023/01/15 04:56:52;;;;;;;6.25;3.17;;;;;;;1.84;90.46;92358.44;4992627;28;20459;-77
2023/01/15 04:59:22;;;;;;;7.50;3.67;;;;;;;1.83;90.24;92354.31;4992483;28;20034;-77
2023/01/15 05:01:47;;;;;;;5.30;3.03;;;;;;;1.78;90.18;92351.66;4992683;28;20026;-77
2023/01/15 05:04:13;;;;;;;6.65;3.50;;;;;;;1.75;91.33;92346.94;4991939;28;20077;-78
2023/01/15 05:06:39;;;;;;;5.57;3.22;;;;;;;1.75;90.34;92341.78;4991243;28;20485;-77
2023/01/15 05:09:23;;;;;;;7.72;3.40;;;;;;;1.73;90.43;92354.13;4992500;28;20042;-77
2023/01/15 05:12:07;;;;;;;4.82;2.67;;;;;;;1.70;90.23;92352.03;4991276;28;20267;-77
2023/01/15 05:14:33;;;;;;;7.25;3.00;;;;;;;1.64;90.63;92351.19;4990754;28;20041;-76
2023/01/15 05:16:58;;;;;;;10.93;3.65;;;;;;;1.65;91.49;92349.38;4991832;28;20381;-77
2023/01/15 05:19:26;;;;;;;6.60;4.00;;;;;;;1.66;94.11;92345.78;4987102;28;20405;-77
2023/01/15 05:21:52;;;;;;;8.57;4.78;;;;;;;1.69;94.54;92342.75;4971721;28;20129;-77
2023/01/15 05:24:18;;;;;;;9.52;4.93;;;;;;;1.71;96.05;92340.69;4976539;28;20117;-77
2023/01/15 05:26:44;;;;;;;8.52;5.15;;;;;;;1.68;96.62;92320.50;4972056;28;20049;-77
2023/01/15 05:29:11;;;;;;;13.35;5.53;;;;;;;1.74;97.46;92327.31;5000485;28;20056;-77
2023/01/15 05:31:38;;;;;;;9.48;5.38;;;;;;;1.74;98.23;92327.31;4988723;28;20050;-77
2023/01/15 05:34:03;;;;;;;9.98;5.50;;;;;;;1.72;99.25;92329.34;4983588;28;20539;-77
2023/01/15 05:36:31;;;;;;;8.80;5.38;;;;;;;1.68;99.23;92315.34;4994607;28;20042;-76
2023/01/15 05:39:16;;;;;;;13.23;5.93;;;;;;;1.64;99.00;92309.09;4991257;28;20453;-76
2023/01/15 05:41:47;;;;;;;11.60;5.40;;;;;;;1.60;98.89;92302.84;5005943;28;20057;-77
2023/01/15 05:44:16;;;;;;;9.48;4.40;;;;;;;1.57;97.27;92298.16;4976895;28;20109;-76
2023/01/15 05:50:08;;;;;;;8.27;4.93;;;;;;;1.48;98.50;92299.56;4995617;28;20084;-76
2023/01/15 05:52:33;;;;;;;9.05;4.57;;;;;;;1.44;99.27;92300.06;4994312;28;20065;-76
2023/01/15 05:55:22;;;;;;;8.27;4.50;;;;;;;1.42;98.64;92299.50;4994008;28;20073;-78
2023/01/15 05:57:48;;;;;;;7.68;4.10;;;;;;;1.41;98.45;92299.72;4979272;28;20035;-77
2023/01/15 06:00:14;;;;;;;6.95;4.00;;;;;;;1.41;97.53;92305.66;4994534;28;20366;-76
2023/01/15 06:03:17;;;;;;;6.13;3.30;;;;;;;1.36;96.66;92297.84;4995229;28;20511;-77
2023/01/15 06:05:43;;;;;;;5.63;3.38;;;;;;;1.34;96.25;92304.25;4993706;28;20075;-77
2023/01/15 06:08:08;;;;;;;6.38;3.80;;;;;;;1.29;96.03;92299.81;4990679;28;20372;-77
2023/01/15 06:10:53;;;;;;;6.88;3.17;;;;;;;1.30;95.29;92298.00;4975807;28;20077;-76
2023/01/15 06:13:18;;;;;;;6.53;3.50;;;;;;;1.25;94.61;92291.75;4986612;28;20062;-78
2023/01/15 06:15:44;;;;;;;7.45;3.38;;;;;;;1.31;94.46;92310.66;4994844;28;20070;-77
2023/01/15 06:18:12;;;;;;;6.90;3.65;;;;;;;1.29;95.05;92307.53;4994979;28;20038;-77
2023/01/15 06:20:39;;;;;;;7.70;3.85;;;;;;;1.30;95.51;92301.34;4986750;28;20026;-77
2023/01/15 06:23:04;;;;;;;7.72;3.88;;;;;;;1.30;96.33;92298.78;4994227;28;20038;-77
2023/01/15 06:25:49;;;;;;;9.68;5.20;;;;;;;1.34;97.74;92293.94;4989974;28;20035;-77
2023/01/15 06:28:14;;;;;;;8.82;5.18;;;;;;;1.35;98.66;92291.13;4983699;28;20049;-77
2023/01/15 06:30:40;;;;;;;10.52;5.28;;;;;;;1.36;99.20;92286.75;4993545;28;20038;-77
2023/01/15 06:33:06;;;;;;;10.65;5.30;;;;;;;1.34;100.00;92279.25;4993541;28;20037;-77
2023/01/15 06:35:32;;;;;;;10.30;5.53;;;;;;;1.36;100.00;92279.78;4986186;28;20037;-77
2023/01/15 06:37:58;;;;;;;9.25;5.00;;;;;;;1.36;100.00;92286.75;4985429;28;20031;-77
2023/01/15 06:49:16;;;;;;;10.43;5.00;;;;;;;1.30;100.00;92278.13;4990238;28;20467;-76
2023/01/15 06:51:41;;;;;;;9.15;4.90;;;;;;;1.29;100.00;92284.31;4994274;28;20046;-77
2023/01/15 06:54:07;;;;;;;8.52;4.63;;;;;;;1.30;100.00;92278.13;4982474;28;20088;-77
2023/01/15 06:56:34;;;;;;;8.63;4.35;;;;;;;1.31;100.00;92276.38;4991379;28;20088;-78
2023/01/15 06:58:59;;;;;;;7.47;4.45;;;;;;;1.31;99.68;92282.31;4991314;28;20528;-78
2023/01/15 07:01:29;;;;;;;6.82;4.43;;;;;;;1.29;99.27;92276.59;4989104;28;20038;-78
2023/01/15 07:03:55;;;;;;;6.75;3.75;;;;;;;1.27;99.04;92270.88;4990231;28;20045;-78
2023/01/15 07:06:23;;;;;;;7.88;4.18;;;;;;;1.27;99.31;92270.88;4990787;28;20096;-77
2023/01/15 07:08:48;;;;;;;10.85;4.53;;;;;;;1.26;99.43;92253.81;4992537;28;20401;-78
2023/01/15 07:11:16;;;;;;;8.93;5.07;;;;;;;1.29;100.00;92257.75;4996068;28;20045;-80
2023/01/15 07:13:42;;;;;;;9.27;5.30;;;;;;;1.28;100.00;92243.28;4996307;28;20084;-80
2023/01/15 07:16:25;;;;;;;10.45;5.57;;;;;;;1.30;100.00;92252.34;4997457;28;20094;-80
2023/01/15 07:18:53;;;;;;;9.57;5.70;;;;;;;1.33;100.00;92267.38;4994363;28;20034;-79
2023/01/15 07:21:37;;;;;;;9.73;5.57;;;;;;;1.34;100.00;92273.31;4997153;28;20037;-79
2023/01/15 07:24:03;;;;;;;11.75;6.13;;;;;;;1.35;100.00;92259.38;4995952;28;20023;-79
2023/01/15 07:26:29;;;;;;;11.15;5.72;;;;;;;1.38;100.00;92253.78;4994375;28;20092;-79
2023/01/15 07:28:54;;;;;;;11.48;5.72;;;;;;;1.43;100.00;92252.03;4963151;28;20499;-79
2023/01/15 07:31:20;;;;;;;11.82;5.10;;;;;;;1.42;100.00;92253.06;4995030;28;20045;-80
2023/01/15 07:33:46;;;;;;;9.15;4.90;;;;;;;1.45;100.00;92250.00;4995371;28;20034;-81
2023/01/15 07:36:11;;;;;;;8.50;5.20;;;;;;;1.50;100.00;92241.56;4976523;28;20058;-80
2023/01/15 07:38:37;;;;;;;9.63;5.30;;;;;;;1.54;100.00;92237.50;4991011;28;20037;-80
2023/01/15 07:51:59;;;;;;;12.43;3.50;;;;;;;1.76;99.62;92237.53;4991927;28;20038;-81
2023/01/15 07:54:26;;;;;;;8.95;4.00;;;;;;;1.79;99.25;92229.31;4993913;28;20046;-80
2023/01/15 07:56:52;;;;;;;8.15;4.28;;;;;;;1.82;99.25;92234.03;4995030;28;20961;-80
2023/01/15 07:59:19;;;;;;;7.57;3.97;;;;;;;1.86;98.76;92223.97;4991893;28;20436;-81
2023/01/15 08:01:44;;;;;;;7.60;4.05;;;;;;;1.92;98.63;92222.25;4995525;28;20053;-80
2023/01/15 08:04:10;;;;;;;6.35;3.50;;;;;;;1.94;97.91;92225.38;4992708;28;20481;-80
2023/01/15 08:06:36;;;;;;;5.88;3.05;;;;;;;2.09;96.96;92225.53;4997035;28;20498;-80
2023/01/15 08:09:02;;;;;;;5.05;2.70;;;;;;;2.28;91.48;92231.97;4986413;28;20152;-79
2023/01/15 08:16:56;;;;;;;5.82;2.80;;;;;;;2.92;82.46;92217.63;4993076;28;20046;-80
2023/01/15 08:19:23;;;;;;;7.32;3.60;;;;;;;2.65;83.57;92215.81;4996842;28;20492;-79
2023/01/15 08:21:50;;;;;;;5.97;2.90;;;;;;;2.72;80.39;92210.47;4966884;28;20045;-79
2023/01/15 08:24:16;;;;;;;6.45;3.65;;;;;;;2.63;83.64;92219.69;4999817;28;20030;-79
2023/01/15 08:26:42;;;;;;;6.00;3.30;;;;;;;2.57;85.47;92220.66;4996039;28;20043;-81
2023/01/15 08:29:07;;;;;;;6.95;3.53;;;;;;;2.49;86.24;92222.63;4997448;28;20057;-82
2023/01/15 08:31:33;;;;;;;6.07;3.25;;;;;;;2.46;87.04;92217.97;4994432;28;20451;-80
2023/01/15 08:33:58;;;;;;;6.70;2.78;;;;;;;2.45;87.56;92205.28;4978036;28;20035;-81
2023/01/15 08:36:25;;;;;;;5.22;2.70;;;;;;;2.45;84.25;92194.94;4977317;28;20114;-80
2023/01/15 08:38:51;;;;;;;4.25;2.20;;;;;;;2.57;80.96;92198.19;4994383;28;20512;-80
2023/01/15 08:41:16;;;;;;;4.05;2.40;;;;;;;2.70;79.19;92197.00;4997568;28;20056;-80
2023/01/15 08:43:47;;;;;;;4.50;2.17;;;;;;;2.77;77.65;92202.78;4979750;28;20054;-81
2023/01/15 08:46:12;;;;;;;6.70;3.15;;;;;;;2.75;78.56;92189.31;4979537;28;20133;-82
2023/01/15 08:48:38;;;;;;;5.07;2.63;;;;;;;2.70;77.72;92187.47;4979830;28;20081;-80
2023/01/15 08:51:08;;;;;;;4.20;2.20;;;;;;;2.64;78.40;92182.50;4995417;28;20035;-80
2023/01/15 08:53:35;;;;;;;6.72;2.72;;;;;;;2.60;79.44;92182.19;4993815;28;20034;-80
2023/01/15 08:56:00;;;;;;;10.43;3.63;;;;;;;2.60;80.95;92181.41;4979388;28;20534;-80
2023/01/15 08:58:28;;;;;;;9.55;3.33;;;;;;;2.60;81.30;92171.06;4978701;28;20062;-79
2023/01/15 09:00:54;;;;;;;6.47;3.20;;;;;;;2.64;81.92;92178.09;4992244;28;20054;-79
2023/01/15 09:03:41;;;;;;;6.25;2.83;;;;;;;2.66;81.49;92180.44;4998895;28;20043;-80
2023/01/15 09:06:07;;;;;;;6.60;3.00;;;;;;;2.66;80.06;92180.44;5002325;28;20075;-80
2023/01/15 09:08:33;;;;;;;5.80;2.70;;;;;;;2.75;81.05;92184.13;5004625;28;20492;-79
2023/01/15 09:11:20;;;;;;;7.43;2.60;;;;;;;2.76;81.30;92179.75;5003750;28;20045;-79
2023/01/15 09:13:47;;;;;;;4.60;2.70;;;;;;;2.74;81.81;92176.63;5003080;28;20070;-79
2023/01/15 09:23:30;;;;;;;6.18;3.00;;;;;;;2.86;81.96;92179.81;5002216;28;20038;-79
2023/01/15 09:29:24;;;;;;;6.18;3.10;;;;;;;2.92;81.86;92165.91;5004047;28;20441;-80
2023/01/15 09:31:49;;;;;;;6.32;3.83;;;;;;;2.97;82.39;92155.59;5004224;28;20101;-80
2023/01/15 09:34:53;;;;;;;7.05;3.47;;;;;;;3.00;83.74;92160.28;5002929;28;20039;-79
2023/01/15 09:37:19;;;;;;;7.22;3.33;;;;;;;3.05;84.93;92169.91;5002811;28;20045;-79
2023/01/15 09:40:22;;;;;;;8.95;4.30;;;;;;;3.09;84.50;92158.81;5002715;28;20034;-80
2023/01/15 09:42:55;;;;;;;;;;;;;;;3.13;84.70;92164.28;5003047;28;20038;-80
2023/01/15 09:45:29;;;;;;;12.30;4.22;;;;;;;3.18;84.46;92164.31;5018235;28;19964;-80
2023/01/15 09:51:48;;;;;;;6.35;3.17;;;;;;;3.26;82.48;92160.47;5003863;28;20046;-79
2023/01/15 09:54:30;;;;;;;8.20;3.08;;;;;;;3.33;81.10;92161.03;5003662;28;20053;-79
2023/01/15 09:56:56;;;;;;;5.45;2.60;;;;;;;3.33;81.59;92156.66;4985401;28;20100;-79
2023/01/15 10:10:15;;;;;;;4.65;2.22;;;;;;;3.52;80.60;92141.47;5002925;28;20049;-80
2023/01/15 10:12:44;;;;;;;5.85;2.33;;;;;;;3.55;79.94;92135.03;5003633;28;20038;-79
2023/01/15 10:18:32;;;;;;;4.63;2.55;;;;;;;3.62;78.82;92135.56;5002876;28;20053;-79
2023/01/15 10:21:19;;;;;;;6.63;3.20;;;;;;;3.64;79.43;92127.56;5001928;28;20477;-80
2023/01/15 10:24:13;;;;;;;5.10;2.72;;;;;;;3.66;78.60;92125.50;5002565;28;20030;-79
2023/01/15 10:26:52;;;;;;;6.93;2.47;;;;;;;3.70;77.47;92127.34;5002342;28;20030;-79
2023/01/15 10:29:24;;;;;;;6.68;2.38;;;;;;;3.73;77.52;92120.88;5001387;28;20041;-79
2023/01/15 10:31:58;;;;;;;8.60;2.23;;;;;;;3.81;76.62;92117.81;5001219;28;20039;-79
2023/01/15 10:35:05;;;;;;;6.70;3.63;;;;;;;3.85;76.03;92110.28;4998838;28;20544;-80
2023/01/15 10:37:43;;;;;;;6.72;3.65;;;;;;;3.91;73.04;92104.09;4998620;28;20046;-78
2023/01/15 10:40:27;;;;;;;6.53;3.67;;;;;;;4.04;71.80;92113.22;4983640;28;20043;-79
2023/01/15 10:43:34;;;;;;;12.23;4.97;;;;;;;3.92;72.23;92113.44;4994215;28;20038;-79
2023/01/15 10:46:09;;;;;;;139.20;64.85;;;;;;;3.88;71.95;92110.56;4998147;28;20403;-79
2023/01/15 10:48:45;;;;;;;11.27;6.88;;;;;;;3.83;72.40;92095.03;4999914;28;20049;-80
2023/01/15 10:54:37;;;;;;;15.43;8.85;;;;;;;3.93;73.07;92084.69;4996870;28;20053;-78
2023/01/15 10:57:11;;;;;;;11.25;5.25;;;;;;;4.04;72.18;92079.56;4997738;28;20412;-78
2023/01/15 11:03:13;;;;;;;11.95;6.43;;;;;;;3.87;76.88;92061.63;4998642;28;20053;-78
2023/01/15 11:05:39;;;;;;;8.82;4.82;;;;;;;3.90;78.04;92069.66;4996029;28;20511;-78
2023/01/15 11:08:31;;;;;;;10.35;5.13;;;;;;;3.89;77.33;92062.91;4997420;28;20034;-78
2023/01/15 11:11:04;;;;;;;7.85;4.40;;;;;;;3.89;75.92;92052.56;4995411;28;20039;-79
2023/01/15 11:19:51;;;;;;;10.77;5.85;;;;;;;3.88;81.58;92045.84;4995300;28;20125;-77
2023/01/15 11:22:19;;;;;;;9.75;5.22;;;;;;;3.87;82.13;92046.09;4996131;28;20038;-77
2023/01/15 11:28:42;;;;;;;9.63;5.15;;;;;;;3.95;80.40;92041.19;4996307;28;20124;-77
2023/01/15 11:35:08;;;;;;;11.07;5.00;;;;;;;4.14;79.99;92048.47;4996222;28;20057;-77
2023/01/15 11:51:48;;;;;;;8.27;3.97;;;;;;;4.32;79.76;91998.75;4994921;28;20500;-77
2023/01/15 11:54:14;;;;;;;9.80;4.65;;;;;;;4.18;80.93;91993.28;4995282;28;20065;-77
2023/01/15 12:00:42;;;;;;;13.55;5.57;;;;;;;4.11;81.98;91964.28;4976055;28;20085;-77
2023/01/15 12:04:02;;;;;;;4.18;2.42;;;;;;;4.02;81.19;91962.47;4978067;28;20054;-78
2023/01/15 12:06:47;;;;;;;5.55;2.90;;;;;;;3.80;82.81;91960.13;4975990;28;20039;-77
2023/01/15 12:13:06;;;;;;;10.05;5.60;;;;;;;3.63;84.54;91965.53;4975799;28;20092;-77
2023/01/15 12:26:42;;;;;;;10.93;6.63;;;;;;;3.79;84.45;91932.69;4974485;28;20050;-77
2023/01/15 12:47:43;;;;;;;10.05;5.75;;;;;;;3.82;78.49;91896.69;4978052;28;20493;-77
2023/01/15 12:54:18;;;;;;;15.43;8.55;;;;;;;3.62;78.39;91891.50;4979791;28;20218;-78
2023/01/15 13:00:42;;;;;;;7.95;4.07;;;;;;;3.83;78.78;91881.91;4979479;28;20046;-78
2023/01/15 13:10:18;;;;;;;9.50;5.00;;;;;;;3.65;81.13;91860.69;4979348;28;20408;-77
2023/01/15 13:12:43;;;;;;;12.93;6.20;;;;;;;3.63;81.13;91862.00;4977702;28;20108;-77
2023/01/15 13:15:20;;;;;;;9.80;6.00;;;;;;;3.62;80.96;91865.59;4983323;28;20034;-78
2023/01/15 13:18:16;;;;;;;12.15;5.72;;;;;;;3.63;81.36;91856.81;4991412;28;20045;-78
2023/01/15 13:20:47;;;;;;;11.57;5.43;;;;;;;3.65;81.03;91859.94;4996649;28;20041;-78
2023/01/15 13:23:42;;;;;;;10.75;5.75;;;;;;;3.69;80.75;91860.94;4994602;28;20038;-78
2023/01/15 13:26:20;;;;;;;9.05;5.28;;;;;;;3.72;80.37;91863.03;4992519;28;20105;-77
2023/01/15 13:29:05;;;;;;;9.38;5.05;;;;;;;3.71;80.00;91859.66;4991006;28;20034;-77
2023/01/15 13:31:40;;;;;;;12.13;5.93;;;;;;;3.76;79.38;91871.84;5013612;28;20038;-77
2023/01/15 13:34:32;;;;;;;12.38;6.43;;;;;;;3.73;80.15;91870.53;4999990;28;20030;-77
2023/01/15 13:37:02;;;;;;;;;;;;;;;3.72;80.56;91871.56;5009734;28;20057;-77
2023/01/15 13:39:38;;;;;;;13.65;8.00;;;;;;;3.74;81.28;91871.31;4986537;28;19968;-76
2023/01/15 13:44:53;;;;;;;16.90;7.68;;;;;;;3.76;80.96;91871.84;4998563;28;20039;-78
2023/01/15 13:47:23;;;;;;;13.43;7.50;;;;;;;3.77;81.13;91870.78;4995903;28;20062;-79
2023/01/15 13:49:53;;;;;;;16.83;8.88;;;;;;;3.74;82.14;91853.19;4982272;28;20512;-79
2023/01/15 13:52:40;;;;;;;19.13;8.35;;;;;;;3.82;83.33;91865.59;4997196;28;20034;-78
2023/01/15 13:55:14;;;;;;;13.75;7.03;;;;;;;3.83;84.27;91866.38;4999453;28;20038;-78
2023/01/15 13:57:59;;;;;;;18.35;9.77;;;;;;;3.84;85.04;91868.72;5003689;28;20040;-78
2023/01/15 14:01:02;;;;;;;13.52;6.93;;;;;;;3.86;85.14;91864.06;5001192;28;20460;-78
2023/01/15 14:03:31;;;;;;;10.65;6.07;;;;;;;3.85;85.86;91859.94;5002327;28;20039;-78
2023/01/15 14:06:02;;;;;;;11.50;6.47;;;;;;;3.87;85.65;91859.66;4999350;28;20027;-78
2023/01/15 14:08:44;;;;;;;13.20;6.25;;;;;;;3.90;86.17;91854.75;4998496;28;20512;-78
2023/01/15 14:11:28;;;;;;;10.67;5.77;;;;;;;3.93;86.53;91843.09;4979687;28;20035;-78
2023/01/15 14:14:10;;;;;;;22.77;16.38;;;;;;;3.92;85.15;91852.66;4995612;28;20612;-77
2023/01/15 14:17:01;;;;;;;31.25;18.92;;;;;;;3.83;84.59;91849.06;4995533;28;20043;-78
2023/01/15 14:19:40;;;;;;;34.00;21.00;;;;;;;3.84;83.42;91842.81;4999542;28;20037;-77
2023/01/15 14:22:44;;;;;;;23.65;13.73;;;;;;;3.97;81.17;91831.94;4995851;28;20511;-77
2023/01/15 14:25:57;;;;;;;11.10;6.55;;;;;;;4.02;82.02;91832.97;4995941;28;20044;-78
2023/01/15 14:28:32;;;;;;;8.35;4.22;;;;;;;3.78;81.27;91848.25;4993139;28;20058;-77
2023/01/15 14:31:25;;;;;;;10.10;5.18;;;;;;;3.67;81.60;91857.84;4996211;28;20039;-78
2023/01/15 14:37:25;;;;;;;12.43;5.97;;;;;;;3.44;83.43;91841.78;4997104;28;20046;-79
2023/01/15 14:39:57;;;;;;;12.35;5.88;;;;;;;3.44;84.02;91843.59;4995989;28;20090;-78
2023/01/15 14:43:01;;;;;;;9.50;5.40;;;;;;;3.65;83.15;91849.59;4982613;28;20038;-77
2023/01/15 14:45:30;;;;;;;9.77;5.00;;;;;;;3.75;81.32;91844.38;4998758;28;20062;-77
2023/01/15 14:48:34;;;;;;;7.72;4.68;;;;;;;3.79;79.77;91850.59;4997616;28;20133;-78
2023/01/15 14:51:32;;;;;;;10.07;5.68;;;;;;;3.65;81.61;91841.81;4999136;28;20038;-78
2023/01/15 14:57:58;;;;;;;16.40;7.15;;;;;;;3.54;82.98;91844.38;4999375;28;20097;-78
2023/01/15 15:00:32;;;;;;;10.70;6.10;;;;;;;3.53;82.36;91842.03;4999711;28;20081;-78
2023/01/15 15:03:00;;;;;;;12.48;5.93;;;;;;;3.54;82.51;91833.25;4997244;28;20041;-78
2023/01/15 15:05:28;;;;;;;9.55;5.35;;;;;;;3.55;83.17;91837.41;4999447;28;20073;-78
2023/01/15 15:07:54;;;;;;;8.23;4.75;;;;;;;3.60;83.06;91841.78;4991495;28;20039;-79